Airfield :
LOGIN :

Register | Disclaimer

   EN    FR    IT 

 










Legend :    VFR   Marginal VFR   IFR   Intensive IFR   Very Intensive IFR
Visi :
Ceiling :
>= 8 km
>= 3000ft
5 to 8 km
1000 to 3000 ft
1500m to 5 km
500 to 1000 ft
800 to 1500m
200 to 500 ft
< 800m
< 200 ft
Symbols :   Thunderstorms  Fog  Heavy snow  Heavy precipitations  Wind > 20 kt
SIGMETs :     Misc.  Thunderstorms  Icing  Turbulence  Mountain Waves  Volcanic Ashes






- Airport Elevation : 158 ft
- IATA code : QAR


EHDL - Deelen Airbase

CURRENT METAR :
  • 191525Z AUTO 33005KT 9999 NCD 06/02 Q1041 BLU

EXPIRED METARs :
  • 191455Z AUTO 35008KT 310V020 9999 NCD 07/02 Q1041 BLU
  • 191425Z AUTO 34008KT 310V020 9999 FEW025 07/03 Q1040 BLU
  • 191355Z AUTO 34008KT 290V010 9999 FEW027 07/03 Q1040 BLU
  • 191325Z AUTO 32008KT 290V360 9999 FEW026 07/04 Q1040 BLU
  • 191255Z AUTO 35008KT 300V010 9999 OVC042 07/03 Q1039 BLU

Expired Forecast.



MET'MAP, your aeronautical weather chart ! - Copyright ORBIFLY December 2007 - Disclaimer

ORBIFLY MET'MAP TEAM :

Programming & Development : Alexandra Zaïnal
Concept & original design : Baudouin d'Aumeries
Assistance for programming : Marc-Olivier Méhu
Technical & hardware support : Manuel Goepfert

Contact : metmap@orbifly.com




SOURCES & CREDITS :

   NOAA